sensor_id;sensor_type;location;lat;lon;timestamp;P1;durP1;ratioP1;P2;durP2;ratioP2
50309;SDS011;36207;51.850;21.698;2023-10-13T00:02:07;7.90;;;5.10;;
50309;SDS011;36207;51.850;21.698;2023-10-13T00:04:33;7.90;;;4.30;;
50309;SDS011;36207;51.850;21.698;2023-10-13T00:07:01;8.60;;;4.50;;
50309;SDS011;36207;51.850;21.698;2023-10-13T00:09:30;8.60;;;5.10;;
50309;SDS011;36207;51.850;21.698;2023-10-13T00:12:03;11.20;;;5.60;;
50309;SDS011;36207;51.850;21.698;2023-10-13T00:14:35;8.30;;;5.10;;
50309;SDS011;36207;51.850;21.698;2023-10-13T00:17:03;9.30;;;5.00;;
50309;SDS011;36207;51.850;21.698;2023-10-13T00:19:34;8.30;;;5.10;;
50309;SDS011;36207;51.850;21.698;2023-10-13T00:22:05;9.80;;;5.30;;
50309;SDS011;36207;51.850;21.698;2023-10-13T00:24:38;11.20;;;5.10;;
50309;SDS011;36207;51.850;21.698;2023-10-13T00:27:14;9.00;;;4.80;;
50309;SDS011;36207;51.850;21.698;2023-10-13T00:32:51;7.10;;;4.30;;
50309;SDS011;36207;51.850;21.698;2023-10-13T00:35:25;7.10;;;4.40;;
50309;SDS011;36207;51.850;21.698;2023-10-13T00:38:03;7.40;;;4.20;;
50309;SDS011;36207;51.850;21.698;2023-10-13T00:40:33;8.60;;;4.90;;
50309;SDS011;36207;51.850;21.698;2023-10-13T00:42:59;7.90;;;4.70;;
50309;SDS011;36207;51.850;21.698;2023-10-13T00:45:56;7.90;;;4.60;;
50309;SDS011;36207;51.850;21.698;2023-10-13T00:48:30;7.50;;;4.60;;
50309;SDS011;36207;51.850;21.698;2023-10-13T00:51:01;8.60;;;5.10;;
50309;SDS011;36207;51.850;21.698;2023-10-13T00:53:43;7.60;;;4.90;;
50309;SDS011;36207;51.850;21.698;2023-10-13T00:56:13;9.40;;;5.80;;
50309;SDS011;36207;51.850;21.698;2023-10-13T00:58:48;8.70;;;5.50;;
50309;SDS011;36207;51.850;21.698;2023-10-13T01:01:18;8.70;;;5.30;;
50309;SDS011;36207;51.850;21.698;2023-10-13T01:03:47;9.80;;;6.40;;
50309;SDS011;36207;51.850;21.698;2023-10-13T01:06:18;10.00;;;6.10;;
50309;SDS011;36207;51.850;21.698;2023-10-13T01:08:45;8.90;;;5.80;;
50309;SDS011;36207;51.850;21.698;2023-10-13T01:11:17;8.90;;;5.50;;
50309;SDS011;36207;51.850;21.698;2023-10-13T01:13:44;6.60;;;4.40;;
50309;SDS011;36207;51.850;21.698;2023-10-13T01:16:12;6.00;;;3.70;;
50309;SDS011;36207;51.850;21.698;2023-10-13T01:18:38;5.60;;;3.60;;
50309;SDS011;36207;51.850;21.698;2023-10-13T01:21:14;5.30;;;3.60;;
50309;SDS011;36207;51.850;21.698;2023-10-13T01:23:46;6.00;;;3.70;;
50309;SDS011;36207;51.850;21.698;2023-10-13T01:26:13;5.40;;;3.80;;
50309;SDS011;36207;51.850;21.698;2023-10-13T01:28:50;6.50;;;4.00;;
50309;SDS011;36207;51.850;21.698;2023-10-13T01:31:17;6.90;;;4.10;;
50309;SDS011;36207;51.850;21.698;2023-10-13T01:34:03;6.40;;;4.20;;
50309;SDS011;36207;51.850;21.698;2023-10-13T01:36:29;8.00;;;4.40;;
50309;SDS011;36207;51.850;21.698;2023-10-13T01:39:01;7.90;;;4.60;;
50309;SDS011;36207;51.850;21.698;2023-10-13T01:41:27;7.30;;;4.60;;
50309;SDS011;36207;51.850;21.698;2023-10-13T01:43:56;7.50;;;4.30;;
50309;SDS011;36207;51.850;21.698;2023-10-13T01:46:23;8.50;;;4.80;;
50309;SDS011;36207;51.850;21.698;2023-10-13T01:48:49;8.40;;;4.80;;
50309;SDS011;36207;51.850;21.698;2023-10-13T01:51:14;7.80;;;5.10;;
50309;SDS011;36207;51.850;21.698;2023-10-13T01:53:40;7.70;;;4.60;;
50309;SDS011;36207;51.850;21.698;2023-10-13T01:56:07;11.00;;;5.40;;
50309;SDS011;36207;51.850;21.698;2023-10-13T01:58:37;8.70;;;5.20;;
50309;SDS011;36207;51.850;21.698;2023-10-13T02:01:08;9.40;;;5.20;;
50309;SDS011;36207;51.850;21.698;2023-10-13T02:03:35;9.90;;;4.90;;
50309;SDS011;36207;51.850;21.698;2023-10-13T02:06:08;8.80;;;5.00;;
50309;SDS011;36207;51.850;21.698;2023-10-13T02:08:36;7.90;;;5.00;;
50309;SDS011;36207;51.850;21.698;2023-10-13T02:11:06;9.70;;;4.90;;
50309;SDS011;36207;51.850;21.698;2023-10-13T02:13:32;10.10;;;5.40;;
50309;SDS011;36207;51.850;21.698;2023-10-13T02:15:58;9.50;;;5.70;;
50309;SDS011;36207;51.850;21.698;2023-10-13T02:18:29;8.80;;;5.40;;
50309;SDS011;36207;51.850;21.698;2023-10-13T02:21:17;9.80;;;5.20;;
50309;SDS011;36207;51.850;21.698;2023-10-13T02:23:43;9.80;;;5.50;;
50309;SDS011;36207;51.850;21.698;2023-10-13T02:26:11;8.90;;;5.90;;
50309;SDS011;36207;51.850;21.698;2023-10-13T02:28:40;11.60;;;6.10;;
50309;SDS011;36207;51.850;21.698;2023-10-13T02:31:07;11.80;;;6.60;;
50309;SDS011;36207;51.850;21.698;2023-10-13T02:33:33;10.70;;;5.70;;
50309;SDS011;36207;51.850;21.698;2023-10-13T02:36:00;9.80;;;5.30;;
50309;SDS011;36207;51.850;21.698;2023-10-13T02:38:31;9.80;;;5.40;;
50309;SDS011;36207;51.850;21.698;2023-10-13T02:41:01;11.20;;;5.70;;
50309;SDS011;36207;51.850;21.698;2023-10-13T02:43:33;9.90;;;5.30;;
50309;SDS011;36207;51.850;21.698;2023-10-13T02:46:00;11.30;;;5.40;;
50309;SDS011;36207;51.850;21.698;2023-10-13T02:48:27;11.20;;;5.50;;
50309;SDS011;36207;51.850;21.698;2023-10-13T02:51:06;9.70;;;5.40;;
50309;SDS011;36207;51.850;21.698;2023-10-13T02:53:42;11.50;;;6.50;;
50309;SDS011;36207;51.850;21.698;2023-10-13T02:56:15;13.20;;;5.70;;
50309;SDS011;36207;51.850;21.698;2023-10-13T02:58:48;11.20;;;6.00;;
50309;SDS011;36207;51.850;21.698;2023-10-13T03:01:19;9.90;;;6.10;;
50309;SDS011;36207;51.850;21.698;2023-10-13T03:03:50;9.90;;;6.30;;
50309;SDS011;36207;51.850;21.698;2023-10-13T03:06:20;9.60;;;5.80;;
50309;SDS011;36207;51.850;21.698;2023-10-13T03:08:51;10.60;;;6.20;;
50309;SDS011;36207;51.850;21.698;2023-10-13T03:11:17;10.00;;;5.90;;
50309;SDS011;36207;51.850;21.698;2023-10-13T03:13:48;12.30;;;6.20;;
50309;SDS011;36207;51.850;21.698;2023-10-13T03:16:16;12.60;;;6.00;;
50309;SDS011;36207;51.850;21.698;2023-10-13T03:18:47;9.40;;;5.30;;
50309;SDS011;36207;51.850;21.698;2023-10-13T03:21:22;8.50;;;5.20;;
50309;SDS011;36207;51.850;21.698;2023-10-13T03:23:55;10.20;;;5.70;;
50309;SDS011;36207;51.850;21.698;2023-10-13T03:26:24;10.50;;;5.20;;
50309;SDS011;36207;51.850;21.698;2023-10-13T03:28:50;10.40;;;5.70;;
50309;SDS011;36207;51.850;21.698;2023-10-13T03:31:19;10.20;;;6.00;;
50309;SDS011;36207;51.850;21.698;2023-10-13T03:33:48;9.60;;;5.70;;
50309;SDS011;36207;51.850;21.698;2023-10-13T03:36:15;8.70;;;5.20;;
50309;SDS011;36207;51.850;21.698;2023-10-13T03:39:00;9.50;;;5.50;;
50309;SDS011;36207;51.850;21.698;2023-10-13T03:41:32;11.60;;;5.80;;
50309;SDS011;36207;51.850;21.698;2023-10-13T03:44:02;10.50;;;5.60;;
50309;SDS011;36207;51.850;21.698;2023-10-13T03:46:41;8.30;;;5.00;;
50309;SDS011;36207;51.850;21.698;2023-10-13T03:49:08;10.50;;;5.70;;
50309;SDS011;36207;51.850;21.698;2023-10-13T03:51:39;10.10;;;5.80;;
50309;SDS011;36207;51.850;21.698;2023-10-13T03:54:05;8.30;;;5.00;;
50309;SDS011;36207;51.850;21.698;2023-10-13T03:56:35;8.20;;;4.80;;
50309;SDS011;36207;51.850;21.698;2023-10-13T03:59:05;9.50;;;5.30;;
50309;SDS011;36207;51.850;21.698;2023-10-13T04:01:33;10.20;;;5.00;;
50309;SDS011;36207;51.850;21.698;2023-10-13T04:04:11;9.30;;;5.50;;
50309;SDS011;36207;51.850;21.698;2023-10-13T04:06:40;8.20;;;4.80;;
50309;SDS011;36207;51.850;21.698;2023-10-13T04:09:17;9.20;;;4.90;;
50309;SDS011;36207;51.850;21.698;2023-10-13T04:11:59;8.90;;;5.20;;
50309;SDS011;36207;51.850;21.698;2023-10-13T04:14:31;9.30;;;5.20;;
50309;SDS011;36207;51.850;21.698;2023-10-13T04:17:20;9.30;;;5.40;;
50309;SDS011;36207;51.850;21.698;2023-10-13T04:19:51;7.60;;;4.60;;
50309;SDS011;36207;51.850;21.698;2023-10-13T04:22:31;8.70;;;5.30;;
50309;SDS011;36207;51.850;21.698;2023-10-13T04:28:01;10.30;;;5.20;;
50309;SDS011;36207;51.850;21.698;2023-10-13T04:30:41;8.90;;;5.10;;
50309;SDS011;36207;51.850;21.698;2023-10-13T04:33:24;9.40;;;5.60;;
50309;SDS011;36207;51.850;21.698;2023-10-13T04:36:12;9.00;;;5.20;;
50309;SDS011;36207;51.850;21.698;2023-10-13T04:38:40;11.60;;;5.00;;
50309;SDS011;36207;51.850;21.698;2023-10-13T04:41:32;8.10;;;4.80;;
50309;SDS011;36207;51.850;21.698;2023-10-13T04:44:05;8.90;;;4.80;;
50309;SDS011;36207;51.850;21.698;2023-10-13T04:46:52;8.80;;;4.90;;
50309;SDS011;36207;51.850;21.698;2023-10-13T04:49:20;8.70;;;4.90;;
50309;SDS011;36207;51.850;21.698;2023-10-13T04:52:03;9.00;;;4.90;;
50309;SDS011;36207;51.850;21.698;2023-10-13T04:54:33;7.70;;;4.90;;
50309;SDS011;36207;51.850;21.698;2023-10-13T05:00:00;8.30;;;5.10;;
50309;SDS011;36207;51.850;21.698;2023-10-13T05:02:38;8.70;;;5.10;;
50309;SDS011;36207;51.850;21.698;2023-10-13T05:05:09;8.90;;;5.20;;
50309;SDS011;36207;51.850;21.698;2023-10-13T05:07:51;8.70;;;5.10;;
50309;SDS011;36207;51.850;21.698;2023-10-13T05:10:36;8.50;;;4.80;;
50309;SDS011;36207;51.850;21.698;2023-10-13T05:13:21;10.40;;;5.40;;
50309;SDS011;36207;51.850;21.698;2023-10-13T05:16:06;13.90;;;5.50;;
50309;SDS011;36207;51.850;21.698;2023-10-13T05:18:51;9.00;;;5.30;;
50309;SDS011;36207;51.850;21.698;2023-10-13T05:21:36;12.10;;;5.20;;
50309;SDS011;36207;51.850;21.698;2023-10-13T05:24:20;10.40;;;5.50;;
50309;SDS011;36207;51.850;21.698;2023-10-13T05:27:04;14.60;;;6.10;;
50309;SDS011;36207;51.850;21.698;2023-10-13T05:29:49;9.50;;;5.50;;
50309;SDS011;36207;51.850;21.698;2023-10-13T05:32:34;11.90;;;5.70;;
50309;SDS011;36207;51.850;21.698;2023-10-13T05:35:21;10.60;;;5.60;;
50309;SDS011;36207;51.850;21.698;2023-10-13T05:38:06;12.30;;;6.10;;
50309;SDS011;36207;51.850;21.698;2023-10-13T05:40:52;11.30;;;6.10;;
50309;SDS011;36207;51.850;21.698;2023-10-13T05:43:37;12.10;;;6.00;;
50309;SDS011;36207;51.850;21.698;2023-10-13T05:46:22;11.00;;;5.80;;
50309;SDS011;36207;51.850;21.698;2023-10-13T05:48:51;12.40;;;6.00;;
50309;SDS011;36207;51.850;21.698;2023-10-13T05:51:37;15.20;;;6.90;;
50309;SDS011;36207;51.850;21.698;2023-10-13T05:54:07;16.00;;;6.80;;
50309;SDS011;36207;51.850;21.698;2023-10-13T05:59:24;11.80;;;5.60;;
50309;SDS011;36207;51.850;21.698;2023-10-13T06:02:09;10.80;;;4.90;;
50309;SDS011;36207;51.850;21.698;2023-10-13T06:04:55;12.00;;;5.40;;
50309;SDS011;36207;51.850;21.698;2023-10-13T06:07:41;12.40;;;5.40;;
50309;SDS011;36207;51.850;21.698;2023-10-13T06:10:25;10.70;;;5.40;;
50309;SDS011;36207;51.850;21.698;2023-10-13T06:13:10;11.20;;;5.20;;
50309;SDS011;36207;51.850;21.698;2023-10-13T06:15:55;13.70;;;5.60;;
50309;SDS011;36207;51.850;21.698;2023-10-13T06:18:39;13.00;;;5.50;;
50309;SDS011;36207;51.850;21.698;2023-10-13T06:21:24;13.00;;;5.40;;
50309;SDS011;36207;51.850;21.698;2023-10-13T06:24:09;14.60;;;5.20;;
50309;SDS011;36207;51.850;21.698;2023-10-13T06:26:53;11.70;;;5.10;;
50309;SDS011;36207;51.850;21.698;2023-10-13T06:29:38;13.30;;;5.50;;
50309;SDS011;36207;51.850;21.698;2023-10-13T06:32:04;11.30;;;5.30;;
50309;SDS011;36207;51.850;21.698;2023-10-13T06:34:37;11.50;;;5.40;;
50309;SDS011;36207;51.850;21.698;2023-10-13T06:37:16;9.80;;;5.10;;
50309;SDS011;36207;51.850;21.698;2023-10-13T06:39:49;13.30;;;5.60;;
50309;SDS011;36207;51.850;21.698;2023-10-13T06:42:15;14.70;;;4.70;;
50309;SDS011;36207;51.850;21.698;2023-10-13T06:44:44;13.00;;;5.20;;
50309;SDS011;36207;51.850;21.698;2023-10-13T06:47:14;12.40;;;4.80;;
50309;SDS011;36207;51.850;21.698;2023-10-13T06:49:40;16.20;;;5.40;;
50309;SDS011;36207;51.850;21.698;2023-10-13T06:52:09;13.50;;;5.20;;
50309;SDS011;36207;51.850;21.698;2023-10-13T06:54:36;11.60;;;5.30;;
50309;SDS011;36207;51.850;21.698;2023-10-13T06:57:05;11.70;;;5.60;;
50309;SDS011;36207;51.850;21.698;2023-10-13T06:59:36;11.60;;;5.90;;
50309;SDS011;36207;51.850;21.698;2023-10-13T07:02:05;13.70;;;5.00;;
50309;SDS011;36207;51.850;21.698;2023-10-13T07:04:32;12.10;;;5.00;;
50309;SDS011;36207;51.850;21.698;2023-10-13T07:06:58;16.00;;;5.00;;
50309;SDS011;36207;51.850;21.698;2023-10-13T07:09:26;10.60;;;4.70;;
50309;SDS011;36207;51.850;21.698;2023-10-13T07:11:58;13.10;;;4.10;;
50309;SDS011;36207;51.850;21.698;2023-10-13T07:14:27;10.50;;;4.30;;
50309;SDS011;36207;51.850;21.698;2023-10-13T07:17:26;15.80;;;5.30;;
50309;SDS011;36207;51.850;21.698;2023-10-13T07:19:59;12.00;;;5.20;;
50309;SDS011;36207;51.850;21.698;2023-10-13T07:22:43;10.60;;;4.60;;
50309;SDS011;36207;51.850;21.698;2023-10-13T07:25:32;12.20;;;4.70;;
50309;SDS011;36207;51.850;21.698;2023-10-13T07:27:59;11.60;;;5.00;;
50309;SDS011;36207;51.850;21.698;2023-10-13T07:30:26;10.80;;;4.80;;
50309;SDS011;36207;51.850;21.698;2023-10-13T07:32:53;14.80;;;5.90;;
50309;SDS011;36207;51.850;21.698;2023-10-13T07:35:23;12.90;;;5.80;;
50309;SDS011;36207;51.850;21.698;2023-10-13T07:37:51;14.50;;;6.10;;
50309;SDS011;36207;51.850;21.698;2023-10-13T07:40:20;18.20;;;6.70;;
50309;SDS011;36207;51.850;21.698;2023-10-13T07:43:05;12.90;;;6.40;;
50309;SDS011;36207;51.850;21.698;2023-10-13T07:45:38;12.70;;;6.30;;
50309;SDS011;36207;51.850;21.698;2023-10-13T07:48:07;15.00;;;5.80;;
50309;SDS011;36207;51.850;21.698;2023-10-13T07:50:42;13.80;;;5.20;;
50309;SDS011;36207;51.850;21.698;2023-10-13T07:53:09;14.00;;;5.30;;
50309;SDS011;36207;51.850;21.698;2023-10-13T07:55:58;11.00;;;5.20;;
50309;SDS011;36207;51.850;21.698;2023-10-13T07:58:28;12.70;;;5.00;;
50309;SDS011;36207;51.850;21.698;2023-10-13T08:00:57;15.30;;;5.50;;
50309;SDS011;36207;51.850;21.698;2023-10-13T08:03:25;13.40;;;5.80;;
50309;SDS011;36207;51.850;21.698;2023-10-13T08:06:00;12.60;;;5.50;;
50309;SDS011;36207;51.850;21.698;2023-10-13T08:08:44;13.90;;;5.60;;
50309;SDS011;36207;51.850;21.698;2023-10-13T08:11:16;10.30;;;4.90;;
50309;SDS011;36207;51.850;21.698;2023-10-13T08:13:49;14.20;;;5.10;;
50309;SDS011;36207;51.850;21.698;2023-10-13T08:16:20;17.60;;;5.70;;
50309;SDS011;36207;51.850;21.698;2023-10-13T08:18:48;11.00;;;4.80;;
50309;SDS011;36207;51.850;21.698;2023-10-13T08:21:16;12.10;;;4.90;;
50309;SDS011;36207;51.850;21.698;2023-10-13T08:23:44;12.10;;;4.60;;
50309;SDS011;36207;51.850;21.698;2023-10-13T08:26:22;12.70;;;4.90;;
50309;SDS011;36207;51.850;21.698;2023-10-13T08:31:49;14.00;;;5.50;;
50309;SDS011;36207;51.850;21.698;2023-10-13T08:34:31;13.20;;;5.40;;
50309;SDS011;36207;51.850;21.698;2023-10-13T08:37:05;11.10;;;5.50;;
50309;SDS011;36207;51.850;21.698;2023-10-13T08:39:52;16.20;;;5.90;;
50309;SDS011;36207;51.850;21.698;2023-10-13T08:42:33;16.60;;;6.60;;
50309;SDS011;36207;51.850;21.698;2023-10-13T08:45:10;15.30;;;6.40;;
50309;SDS011;36207;51.850;21.698;2023-10-13T08:47:49;16.80;;;6.60;;
50309;SDS011;36207;51.850;21.698;2023-10-13T08:50:42;18.50;;;7.20;;
50309;SDS011;36207;51.850;21.698;2023-10-13T08:53:19;16.50;;;7.30;;
50309;SDS011;36207;51.850;21.698;2023-10-13T08:56:08;18.60;;;7.40;;
50309;SDS011;36207;51.850;21.698;2023-10-13T08:58:36;20.40;;;9.50;;
50309;SDS011;36207;51.850;21.698;2023-10-13T09:01:25;21.60;;;10.30;;
50309;SDS011;36207;51.850;21.698;2023-10-13T09:04:01;23.60;;;10.50;;
50309;SDS011;36207;51.850;21.698;2023-10-13T09:09:13;18.00;;;7.70;;
50309;SDS011;36207;51.850;21.698;2023-10-13T09:12:17;16.10;;;6.70;;
50309;SDS011;36207;51.850;21.698;2023-10-13T09:15:03;13.90;;;7.50;;
50309;SDS011;36207;51.850;21.698;2023-10-13T09:20:33;19.30;;;9.30;;
50309;SDS011;36207;51.850;21.698;2023-10-13T09:23:11;19.30;;;7.70;;
50309;SDS011;36207;51.850;21.698;2023-10-13T09:25:49;20.10;;;8.10;;
50309;SDS011;36207;51.850;21.698;2023-10-13T09:28:34;17.90;;;7.60;;
50309;SDS011;36207;51.850;21.698;2023-10-13T09:31:02;18.50;;;8.80;;
50309;SDS011;36207;51.850;21.698;2023-10-13T09:33:33;15.90;;;8.00;;
50309;SDS011;36207;51.850;21.698;2023-10-13T09:36:02;21.70;;;9.00;;
50309;SDS011;36207;51.850;21.698;2023-10-13T09:38:33;16.20;;;8.20;;
50309;SDS011;36207;51.850;21.698;2023-10-13T09:41:04;17.90;;;8.40;;
50309;SDS011;36207;51.850;21.698;2023-10-13T09:43:49;20.40;;;8.20;;
50309;SDS011;36207;51.850;21.698;2023-10-13T09:46:21;21.80;;;9.20;;
50309;SDS011;36207;51.850;21.698;2023-10-13T09:48:54;18.50;;;8.70;;
50309;SDS011;36207;51.850;21.698;2023-10-13T09:51:32;17.50;;;9.10;;
50309;SDS011;36207;51.850;21.698;2023-10-13T09:54:09;19.90;;;9.70;;
50309;SDS011;36207;51.850;21.698;2023-10-13T09:56:46;20.20;;;10.50;;
50309;SDS011;36207;51.850;21.698;2023-10-13T09:59:24;24.20;;;10.10;;
50309;SDS011;36207;51.850;21.698;2023-10-13T10:02:03;21.40;;;9.60;;
50309;SDS011;36207;51.850;21.698;2023-10-13T10:04:35;19.10;;;9.90;;
50309;SDS011;36207;51.850;21.698;2023-10-13T10:07:10;21.10;;;10.80;;
50309;SDS011;36207;51.850;21.698;2023-10-13T10:09:36;19.00;;;10.00;;
50309;SDS011;36207;51.850;21.698;2023-10-13T10:17:22;20.90;;;10.40;;
50309;SDS011;36207;51.850;21.698;2023-10-13T10:19:49;24.20;;;10.00;;
50309;SDS011;36207;51.850;21.698;2023-10-13T10:22:26;19.70;;;10.30;;
50309;SDS011;36207;51.850;21.698;2023-10-13T10:24:59;16.70;;;10.00;;
50309;SDS011;36207;51.850;21.698;2023-10-13T10:27:31;20.70;;;10.20;;
50309;SDS011;36207;51.850;21.698;2023-10-13T10:29:58;20.10;;;10.50;;
50309;SDS011;36207;51.850;21.698;2023-10-13T10:32:34;22.30;;;10.40;;
50309;SDS011;36207;51.850;21.698;2023-10-13T10:35:09;18.80;;;10.20;;
50309;SDS011;36207;51.850;21.698;2023-10-13T10:37:46;21.90;;;11.00;;
50309;SDS011;36207;51.850;21.698;2023-10-13T10:40:16;21.30;;;10.60;;
50309;SDS011;36207;51.850;21.698;2023-10-13T10:42:59;20.50;;;10.90;;
50309;SDS011;36207;51.850;21.698;2023-10-13T10:45:27;20.50;;;10.70;;
50309;SDS011;36207;51.850;21.698;2023-10-13T10:47:58;17.70;;;10.70;;
50309;SDS011;36207;51.850;21.698;2023-10-13T10:50:25;18.20;;;10.80;;
50309;SDS011;36207;51.850;21.698;2023-10-13T10:53:03;19.20;;;10.20;;
50309;SDS011;36207;51.850;21.698;2023-10-13T10:55:37;19.20;;;10.70;;
50309;SDS011;36207;51.850;21.698;2023-10-13T10:58:03;19.90;;;9.90;;
50309;SDS011;36207;51.850;21.698;2023-10-13T11:00:52;20.60;;;10.10;;
50309;SDS011;36207;51.850;21.698;2023-10-13T11:03:37;19.60;;;10.10;;
50309;SDS011;36207;51.850;21.698;2023-10-13T11:06:11;21.40;;;10.20;;
50309;SDS011;36207;51.850;21.698;2023-10-13T11:08:43;19.00;;;10.30;;
50309;SDS011;36207;51.850;21.698;2023-10-13T11:11:16;17.20;;;10.50;;
50309;SDS011;36207;51.850;21.698;2023-10-13T11:13:44;23.70;;;10.40;;
50309;SDS011;36207;51.850;21.698;2023-10-13T11:16:22;19.90;;;10.40;;
50309;SDS011;36207;51.850;21.698;2023-10-13T11:19:00;21.30;;;10.60;;
50309;SDS011;36207;51.850;21.698;2023-10-13T11:21:30;22.10;;;10.00;;
50309;SDS011;36207;51.850;21.698;2023-10-13T11:23:57;16.10;;;9.50;;
50309;SDS011;36207;51.850;21.698;2023-10-13T11:26:35;17.00;;;10.00;;
50309;SDS011;36207;51.850;21.698;2023-10-13T11:29:31;16.30;;;9.70;;
50309;SDS011;36207;51.850;21.698;2023-10-13T11:31:59;18.70;;;9.50;;
50309;SDS011;36207;51.850;21.698;2023-10-13T11:34:25;16.90;;;9.50;;
50309;SDS011;36207;51.850;21.698;2023-10-13T11:37:01;17.00;;;10.10;;
50309;SDS011;36207;51.850;21.698;2023-10-13T11:39:47;16.10;;;9.60;;
50309;SDS011;36207;51.850;21.698;2023-10-13T11:42:13;21.10;;;10.10;;
50309;SDS011;36207;51.850;21.698;2023-10-13T11:44:43;18.60;;;9.80;;
50309;SDS011;36207;51.850;21.698;2023-10-13T11:47:09;19.50;;;9.70;;
50309;SDS011;36207;51.850;21.698;2023-10-13T11:49:54;16.40;;;9.20;;
50309;SDS011;36207;51.850;21.698;2023-10-13T11:52:22;15.10;;;9.50;;
50309;SDS011;36207;51.850;21.698;2023-10-13T11:54:51;17.70;;;9.60;;
50309;SDS011;36207;51.850;21.698;2023-10-13T11:57:17;16.10;;;9.20;;
50309;SDS011;36207;51.850;21.698;2023-10-13T11:59:45;16.70;;;8.90;;
50309;SDS011;36207;51.850;21.698;2023-10-13T12:02:19;17.40;;;8.90;;
50309;SDS011;36207;51.850;21.698;2023-10-13T12:04:52;16.20;;;8.90;;
50309;SDS011;36207;51.850;21.698;2023-10-13T12:07:20;22.00;;;8.90;;
50309;SDS011;36207;51.850;21.698;2023-10-13T12:09:48;20.70;;;9.20;;
50309;SDS011;36207;51.850;21.698;2023-10-13T12:12:22;17.90;;;8.90;;
50309;SDS011;36207;51.850;21.698;2023-10-13T12:14:49;15.30;;;8.50;;
50309;SDS011;36207;51.850;21.698;2023-10-13T12:17:18;20.30;;;8.40;;
50309;SDS011;36207;51.850;21.698;2023-10-13T12:19:54;19.50;;;9.00;;
50309;SDS011;36207;51.850;21.698;2023-10-13T12:22:20;18.10;;;9.00;;
50309;SDS011;36207;51.850;21.698;2023-10-13T12:24:54;16.80;;;8.80;;
50309;SDS011;36207;51.850;21.698;2023-10-13T12:27:21;17.90;;;9.20;;
50309;SDS011;36207;51.850;21.698;2023-10-13T12:29:53;17.90;;;9.00;;
50309;SDS011;36207;51.850;21.698;2023-10-13T12:32:22;17.80;;;9.30;;
50309;SDS011;36207;51.850;21.698;2023-10-13T12:34:51;12.50;;;8.10;;
50309;SDS011;36207;51.850;21.698;2023-10-13T12:37:30;17.50;;;8.40;;
50309;SDS011;36207;51.850;21.698;2023-10-13T12:40:26;15.40;;;8.30;;
50309;SDS011;36207;51.850;21.698;2023-10-13T12:43:10;15.20;;;8.60;;
50309;SDS011;36207;51.850;21.698;2023-10-13T12:45:55;17.50;;;8.30;;
50309;SDS011;36207;51.850;21.698;2023-10-13T12:48:39;15.90;;;8.90;;
50309;SDS011;36207;51.850;21.698;2023-10-13T12:51:21;16.70;;;8.90;;
50309;SDS011;36207;51.850;21.698;2023-10-13T12:53:48;16.50;;;9.80;;
50309;SDS011;36207;51.850;21.698;2023-10-13T12:56:15;16.40;;;8.10;;
50309;SDS011;36207;51.850;21.698;2023-10-13T12:58:42;13.90;;;8.60;;
50309;SDS011;36207;51.850;21.698;2023-10-13T13:01:20;16.50;;;8.80;;
50309;SDS011;36207;51.850;21.698;2023-10-13T13:03:48;16.30;;;9.10;;
50309;SDS011;36207;51.850;21.698;2023-10-13T13:06:16;15.90;;;8.20;;
50309;SDS011;36207;51.850;21.698;2023-10-13T13:08:43;14.90;;;8.50;;
50309;SDS011;36207;51.850;21.698;2023-10-13T13:11:10;13.70;;;8.80;;
50309;SDS011;36207;51.850;21.698;2023-10-13T13:13:36;16.60;;;8.90;;
50309;SDS011;36207;51.850;21.698;2023-10-13T13:16:02;15.70;;;8.90;;
50309;SDS011;36207;51.850;21.698;2023-10-13T13:18:33;18.80;;;8.80;;
50309;SDS011;36207;51.850;21.698;2023-10-13T13:21:00;19.40;;;9.00;;
50309;SDS011;36207;51.850;21.698;2023-10-13T13:23:27;16.70;;;8.80;;
50309;SDS011;36207;51.850;21.698;2023-10-13T13:25:53;17.90;;;9.30;;
50309;SDS011;36207;51.850;21.698;2023-10-13T13:28:22;16.00;;;8.80;;
50309;SDS011;36207;51.850;21.698;2023-10-13T13:30:50;13.90;;;8.40;;
50309;SDS011;36207;51.850;21.698;2023-10-13T13:33:20;20.50;;;8.80;;
50309;SDS011;36207;51.850;21.698;2023-10-13T13:35:54;17.60;;;8.80;;
50309;SDS011;36207;51.850;21.698;2023-10-13T13:38:21;18.40;;;8.40;;
50309;SDS011;36207;51.850;21.698;2023-10-13T13:40:53;16.40;;;8.40;;
50309;SDS011;36207;51.850;21.698;2023-10-13T13:43:22;14.60;;;8.60;;
50309;SDS011;36207;51.850;21.698;2023-10-13T13:46:18;17.60;;;7.30;;
50309;SDS011;36207;51.850;21.698;2023-10-13T13:48:53;12.80;;;7.30;;
50309;SDS011;36207;51.850;21.698;2023-10-13T13:51:32;12.90;;;7.00;;
50309;SDS011;36207;51.850;21.698;2023-10-13T13:53:59;12.30;;;7.00;;
50309;SDS011;36207;51.850;21.698;2023-10-13T13:56:25;14.70;;;7.30;;
50309;SDS011;36207;51.850;21.698;2023-10-13T13:58:54;15.90;;;7.50;;
50309;SDS011;36207;51.850;21.698;2023-10-13T14:01:32;13.60;;;7.00;;
50309;SDS011;36207;51.850;21.698;2023-10-13T14:04:00;15.10;;;7.10;;
50309;SDS011;36207;51.850;21.698;2023-10-13T14:06:32;13.80;;;7.00;;
50309;SDS011;36207;51.850;21.698;2023-10-13T14:09:00;12.90;;;7.00;;
50309;SDS011;36207;51.850;21.698;2023-10-13T14:11:32;17.10;;;7.30;;
50309;SDS011;36207;51.850;21.698;2023-10-13T14:14:09;12.60;;;7.10;;
50309;SDS011;36207;51.850;21.698;2023-10-13T14:16:54;15.80;;;7.20;;
50309;SDS011;36207;51.850;21.698;2023-10-13T14:19:29;15.20;;;6.90;;
50309;SDS011;36207;51.850;21.698;2023-10-13T14:21:55;11.10;;;7.00;;
50309;SDS011;36207;51.850;21.698;2023-10-13T14:24:22;15.90;;;7.00;;
50309;SDS011;36207;51.850;21.698;2023-10-13T14:27:09;15.00;;;7.30;;
50309;SDS011;36207;51.850;21.698;2023-10-13T14:29:41;14.90;;;7.30;;
50309;SDS011;36207;51.850;21.698;2023-10-13T14:32:11;15.20;;;7.10;;
50309;SDS011;36207;51.850;21.698;2023-10-13T14:34:41;15.00;;;7.20;;
50309;SDS011;36207;51.850;21.698;2023-10-13T14:37:08;15.00;;;7.90;;
50309;SDS011;36207;51.850;21.698;2023-10-13T14:39:41;16.80;;;7.60;;
50309;SDS011;36207;51.850;21.698;2023-10-13T14:42:07;14.80;;;8.10;;
50309;SDS011;36207;51.850;21.698;2023-10-13T14:44:34;12.90;;;7.90;;
50309;SDS011;36207;51.850;21.698;2023-10-13T14:47:02;14.00;;;8.20;;
50309;SDS011;36207;51.850;21.698;2023-10-13T14:49:31;14.50;;;8.30;;
50309;SDS011;36207;51.850;21.698;2023-10-13T14:51:56;14.70;;;8.30;;
50309;SDS011;36207;51.850;21.698;2023-10-13T14:54:25;19.70;;;8.50;;
50309;SDS011;36207;51.850;21.698;2023-10-13T14:57:03;14.10;;;8.10;;
50309;SDS011;36207;51.850;21.698;2023-10-13T14:59:29;15.20;;;8.70;;
50309;SDS011;36207;51.850;21.698;2023-10-13T15:01:59;16.60;;;8.30;;
50309;SDS011;36207;51.850;21.698;2023-10-13T15:04:27;15.50;;;9.10;;
50309;SDS011;36207;51.850;21.698;2023-10-13T15:06:54;16.00;;;8.80;;
50309;SDS011;36207;51.850;21.698;2023-10-13T15:09:21;16.90;;;8.80;;
50309;SDS011;36207;51.850;21.698;2023-10-13T15:11:49;16.30;;;8.80;;
50309;SDS011;36207;51.850;21.698;2023-10-13T15:14:20;13.60;;;8.50;;
50309;SDS011;36207;51.850;21.698;2023-10-13T15:16:46;16.20;;;8.70;;
50309;SDS011;36207;51.850;21.698;2023-10-13T15:19:12;15.00;;;8.60;;
50309;SDS011;36207;51.850;21.698;2023-10-13T15:21:38;15.00;;;8.60;;
50309;SDS011;36207;51.850;21.698;2023-10-13T15:24:06;13.50;;;8.90;;
50309;SDS011;36207;51.850;21.698;2023-10-13T15:26:42;16.10;;;8.90;;